sensor_id;sensor_type;location;lat;lon;timestamp;P1;durP1;ratioP1;P2;durP2;ratioP2
9942;SDS011;5010;45.080;7.634;2023-08-20T00:01:08;18.60;;;17.67;;
9942;SDS011;5010;45.080;7.634;2023-08-20T00:03:43;20.60;;;19.58;;
9942;SDS011;5010;45.080;7.634;2023-08-20T00:06:11;15.52;;;14.73;;
9942;SDS011;5010;45.080;7.634;2023-08-20T00:08:38;24.67;;;23.48;;
9942;SDS011;5010;45.080;7.634;2023-08-20T00:11:08;19.35;;;18.35;;
9942;SDS011;5010;45.080;7.634;2023-08-20T00:13:35;18.33;;;17.42;;
9942;SDS011;5010;45.080;7.634;2023-08-20T00:16:03;15.00;;;14.25;;
9942;SDS011;5010;45.080;7.634;2023-08-20T00:18:31;17.13;;;15.95;;
9942;SDS011;5010;45.080;7.634;2023-08-20T00:20:59;19.42;;;18.42;;
9942;SDS011;5010;45.080;7.634;2023-08-20T00:23:27;17.40;;;16.50;;
9942;SDS011;5010;45.080;7.634;2023-08-20T00:25:54;18.45;;;17.55;;
9942;SDS011;5010;45.080;7.634;2023-08-20T00:28:22;16.35;;;15.52;;
9942;SDS011;5010;45.080;7.634;2023-08-20T00:30:49;16.55;;;15.75;;
9942;SDS011;5010;45.080;7.634;2023-08-20T00:33:16;17.77;;;16.88;;
9942;SDS011;5010;45.080;7.634;2023-08-20T00:35:44;20.77;;;19.77;;
9942;SDS011;5010;45.080;7.634;2023-08-20T00:38:12;18.48;;;17.58;;
9942;SDS011;5010;45.080;7.634;2023-08-20T00:40:40;21.42;;;20.33;;
9942;SDS011;5010;45.080;7.634;2023-08-20T00:43:07;20.13;;;19.13;;
9942;SDS011;5010;45.080;7.634;2023-08-20T00:45:34;21.42;;;20.33;;
9942;SDS011;5010;45.080;7.634;2023-08-20T00:48:09;18.40;;;17.50;;
9942;SDS011;5010;45.080;7.634;2023-08-20T00:50:36;18.25;;;17.35;;
9942;SDS011;5010;45.080;7.634;2023-08-20T00:53:04;15.90;;;15.10;;
9942;SDS011;5010;45.080;7.634;2023-08-20T00:55:33;17.05;;;16.15;;
9942;SDS011;5010;45.080;7.634;2023-08-20T00:58:00;17.83;;;16.92;;
9942;SDS011;5010;45.080;7.634;2023-08-20T01:00:28;18.55;;;17.65;;
9942;SDS011;5010;45.080;7.634;2023-08-20T01:02:55;22.00;;;20.90;;
9942;SDS011;5010;45.080;7.634;2023-08-20T01:05:22;21.20;;;20.10;;
9942;SDS011;5010;45.080;7.634;2023-08-20T01:07:56;17.50;;;16.60;;
9942;SDS011;5010;45.080;7.634;2023-08-20T01:10:27;17.30;;;16.40;;
9942;SDS011;5010;45.080;7.634;2023-08-20T01:12:58;14.82;;;14.05;;
9942;SDS011;5010;45.080;7.634;2023-08-20T01:15:25;17.80;;;16.90;;
9942;SDS011;5010;45.080;7.634;2023-08-20T01:17:52;17.08;;;16.20;;
9942;SDS011;5010;45.080;7.634;2023-08-20T01:20:20;17.50;;;16.60;;
9942;SDS011;5010;45.080;7.634;2023-08-20T01:22:54;18.83;;;17.88;;
9942;SDS011;5010;45.080;7.634;2023-08-20T01:25:32;16.73;;;15.90;;
9942;SDS011;5010;45.080;7.634;2023-08-20T01:30:35;14.90;;;14.10;;
9942;SDS011;5010;45.080;7.634;2023-08-20T01:33:03;18.35;;;17.45;;
9942;SDS011;5010;45.080;7.634;2023-08-20T01:35:31;17.15;;;16.25;;
9942;SDS011;5010;45.080;7.634;2023-08-20T01:37:58;19.35;;;18.38;;
9942;SDS011;5010;45.080;7.634;2023-08-20T01:40:25;16.20;;;15.40;;
9942;SDS011;5010;45.080;7.634;2023-08-20T01:42:52;17.13;;;16.23;;
9942;SDS011;5010;45.080;7.634;2023-08-20T01:45:19;13.45;;;12.75;;
9942;SDS011;5010;45.080;7.634;2023-08-20T01:47:49;16.35;;;15.55;;
9942;SDS011;5010;45.080;7.634;2023-08-20T01:50:16;18.60;;;17.70;;
9942;SDS011;5010;45.080;7.634;2023-08-20T01:52:43;19.95;;;18.95;;
9942;SDS011;5010;45.080;7.634;2023-08-20T01:55:11;17.73;;;16.83;;
9942;SDS011;5010;45.080;7.634;2023-08-20T01:57:39;18.50;;;17.60;;
9942;SDS011;5010;45.080;7.634;2023-08-20T02:00:06;17.35;;;16.48;;
9942;SDS011;5010;45.080;7.634;2023-08-20T02:02:34;18.10;;;17.20;;
9942;SDS011;5010;45.080;7.634;2023-08-20T02:05:03;18.67;;;17.77;;
9942;SDS011;5010;45.080;7.634;2023-08-20T02:07:30;16.15;;;15.35;;
9942;SDS011;5010;45.080;7.634;2023-08-20T02:09:57;15.40;;;14.60;;
9942;SDS011;5010;45.080;7.634;2023-08-20T02:12:24;16.77;;;15.93;;
9942;SDS011;5010;45.080;7.634;2023-08-20T02:14:52;20.30;;;19.30;;
9942;SDS011;5010;45.080;7.634;2023-08-20T02:17:20;15.10;;;14.30;;
9942;SDS011;5010;45.080;7.634;2023-08-20T02:19:48;16.33;;;15.52;;
9942;SDS011;5010;45.080;7.634;2023-08-20T02:22:17;16.92;;;16.05;;
9942;SDS011;5010;45.080;7.634;2023-08-20T02:24:45;18.45;;;17.55;;
9942;SDS011;5010;45.080;7.634;2023-08-20T02:27:13;16.92;;;16.05;;
9942;SDS011;5010;45.080;7.634;2023-08-20T02:29:40;17.42;;;16.52;;
9942;SDS011;5010;45.080;7.634;2023-08-20T02:32:07;20.20;;;19.20;;
9942;SDS011;5010;45.080;7.634;2023-08-20T02:34:35;15.90;;;15.10;;
9942;SDS011;5010;45.080;7.634;2023-08-20T02:37:02;17.00;;;16.10;;
9942;SDS011;5010;45.080;7.634;2023-08-20T02:39:31;13.48;;;12.77;;
9942;SDS011;5010;45.080;7.634;2023-08-20T02:41:58;19.80;;;18.80;;
9942;SDS011;5010;45.080;7.634;2023-08-20T02:44:25;17.15;;;16.25;;
9942;SDS011;5010;45.080;7.634;2023-08-20T02:46:52;15.70;;;14.90;;
9942;SDS011;5010;45.080;7.634;2023-08-20T02:49:20;17.83;;;16.92;;
9942;SDS011;5010;45.080;7.634;2023-08-20T02:51:47;17.33;;;16.42;;
9942;SDS011;5010;45.080;7.634;2023-08-20T02:54:14;16.42;;;15.60;;
9942;SDS011;5010;45.080;7.634;2023-08-20T02:56:43;17.30;;;16.40;;
9942;SDS011;5010;45.080;7.634;2023-08-20T02:59:10;18.77;;;17.85;;
9942;SDS011;5010;45.080;7.634;2023-08-20T03:01:37;15.48;;;14.68;;
9942;SDS011;5010;45.080;7.634;2023-08-20T03:04:04;18.02;;;17.13;;
9942;SDS011;5010;45.080;7.634;2023-08-20T03:06:32;18.63;;;17.73;;
9942;SDS011;5010;45.080;7.634;2023-08-20T03:08:59;21.52;;;20.42;;
9942;SDS011;5010;45.080;7.634;2023-08-20T03:11:28;17.25;;;16.35;;
9942;SDS011;5010;45.080;7.634;2023-08-20T03:13:57;18.42;;;17.52;;
9942;SDS011;5010;45.080;7.634;2023-08-20T03:16:24;19.20;;;18.23;;
9942;SDS011;5010;45.080;7.634;2023-08-20T03:18:51;16.38;;;15.57;;
9942;SDS011;5010;45.080;7.634;2023-08-20T03:21:19;18.40;;;17.50;;
9942;SDS011;5010;45.080;7.634;2023-08-20T03:23:46;20.80;;;19.80;;
9942;SDS011;5010;45.080;7.634;2023-08-20T03:26:19;19.05;;;18.05;;
9942;SDS011;5010;45.080;7.634;2023-08-20T03:28:46;19.95;;;18.95;;
9942;SDS011;5010;45.080;7.634;2023-08-20T03:31:17;18.13;;;17.23;;
9942;SDS011;5010;45.080;7.634;2023-08-20T03:33:45;18.35;;;17.45;;
9942;SDS011;5010;45.080;7.634;2023-08-20T03:36:12;13.13;;;12.43;;
9942;SDS011;5010;45.080;7.634;2023-08-20T03:38:39;16.10;;;15.30;;
9942;SDS011;5010;45.080;7.634;2023-08-20T03:41:06;19.55;;;18.55;;
9942;SDS011;5010;45.080;7.634;2023-08-20T03:43:34;21.85;;;20.75;;
9942;SDS011;5010;45.080;7.634;2023-08-20T03:46:07;19.15;;;18.15;;
9942;SDS011;5010;45.080;7.634;2023-08-20T03:48:35;18.20;;;17.30;;
9942;SDS011;5010;45.080;7.634;2023-08-20T03:51:03;17.40;;;16.50;;
9942;SDS011;5010;45.080;7.634;2023-08-20T03:53:30;21.65;;;20.55;;
9942;SDS011;5010;45.080;7.634;2023-08-20T03:55:57;20.30;;;19.30;;
9942;SDS011;5010;45.080;7.634;2023-08-20T03:58:24;20.88;;;19.85;;
9942;SDS011;5010;45.080;7.634;2023-08-20T04:00:52;19.65;;;18.65;;
9942;SDS011;5010;45.080;7.634;2023-08-20T04:03:21;21.52;;;20.42;;
9942;SDS011;5010;45.080;7.634;2023-08-20T04:05:50;19.10;;;18.10;;
9942;SDS011;5010;45.080;7.634;2023-08-20T04:08:17;25.83;;;24.52;;
9942;SDS011;5010;45.080;7.634;2023-08-20T04:10:45;25.42;;;24.13;;
9942;SDS011;5010;45.080;7.634;2023-08-20T04:13:12;23.80;;;22.60;;
9942;SDS011;5010;45.080;7.634;2023-08-20T04:15:41;22.40;;;21.30;;
9942;SDS011;5010;45.080;7.634;2023-08-20T04:18:08;19.15;;;18.15;;
9942;SDS011;5010;45.080;7.634;2023-08-20T04:20:35;21.20;;;20.10;;
9942;SDS011;5010;45.080;7.634;2023-08-20T04:23:04;22.77;;;21.65;;
9942;SDS011;5010;45.080;7.634;2023-08-20T04:25:31;21.02;;;19.98;;
9942;SDS011;5010;45.080;7.634;2023-08-20T04:27:58;18.77;;;17.83;;
9942;SDS011;5010;45.080;7.634;2023-08-20T04:30:26;24.02;;;22.83;;
9942;SDS011;5010;45.080;7.634;2023-08-20T04:32:53;22.55;;;21.45;;
9942;SDS011;5010;45.080;7.634;2023-08-20T04:35:20;22.48;;;21.38;;
9942;SDS011;5010;45.080;7.634;2023-08-20T04:37:48;21.35;;;20.25;;
9942;SDS011;5010;45.080;7.634;2023-08-20T04:40:18;25.55;;;24.25;;
9942;SDS011;5010;45.080;7.634;2023-08-20T04:42:45;26.63;;;25.33;;
9942;SDS011;5010;45.080;7.634;2023-08-20T04:45:13;23.83;;;22.63;;
9942;SDS011;5010;45.080;7.634;2023-08-20T04:47:43;20.10;;;19.10;;
9942;SDS011;5010;45.080;7.634;2023-08-20T04:50:10;20.75;;;19.75;;
9942;SDS011;5010;45.080;7.634;2023-08-20T04:52:38;23.70;;;22.50;;
9942;SDS011;5010;45.080;7.634;2023-08-20T04:55:06;24.80;;;23.60;;
9942;SDS011;5010;45.080;7.634;2023-08-20T04:57:36;21.33;;;20.23;;
9942;SDS011;5010;45.080;7.634;2023-08-20T05:00:04;24.08;;;22.88;;
9942;SDS011;5010;45.080;7.634;2023-08-20T05:02:32;17.90;;;17.00;;
9942;SDS011;5010;45.080;7.634;2023-08-20T05:04:59;26.35;;;25.05;;
9942;SDS011;5010;45.080;7.634;2023-08-20T05:07:26;19.75;;;18.75;;
9942;SDS011;5010;45.080;7.634;2023-08-20T05:09:54;18.42;;;17.52;;
9942;SDS011;5010;45.080;7.634;2023-08-20T05:12:21;18.65;;;17.75;;
9942;SDS011;5010;45.080;7.634;2023-08-20T05:14:49;22.50;;;21.40;;
9942;SDS011;5010;45.080;7.634;2023-08-20T05:17:16;26.38;;;25.08;;
9942;SDS011;5010;45.080;7.634;2023-08-20T05:19:43;25.63;;;24.33;;
9942;SDS011;5010;45.080;7.634;2023-08-20T05:22:10;20.63;;;19.63;;
9942;SDS011;5010;45.080;7.634;2023-08-20T05:24:37;19.73;;;18.73;;
9942;SDS011;5010;45.080;7.634;2023-08-20T05:27:06;17.35;;;16.45;;
9942;SDS011;5010;45.080;7.634;2023-08-20T05:29:33;18.42;;;17.52;;
9942;SDS011;5010;45.080;7.634;2023-08-20T05:32:02;20.27;;;19.27;;
9942;SDS011;5010;45.080;7.634;2023-08-20T05:34:32;22.80;;;21.67;;
9942;SDS011;5010;45.080;7.634;2023-08-20T05:36:59;19.55;;;18.55;;
9942;SDS011;5010;45.080;7.634;2023-08-20T05:39:26;17.45;;;16.55;;
9942;SDS011;5010;45.080;7.634;2023-08-20T05:41:54;22.02;;;20.92;;
9942;SDS011;5010;45.080;7.634;2023-08-20T05:44:21;18.60;;;17.67;;
9942;SDS011;5010;45.080;7.634;2023-08-20T05:46:48;23.98;;;22.77;;
9942;SDS011;5010;45.080;7.634;2023-08-20T05:49:17;18.15;;;17.25;;
9942;SDS011;5010;45.080;7.634;2023-08-20T05:51:44;17.27;;;16.38;;
9942;SDS011;5010;45.080;7.634;2023-08-20T05:54:11;18.40;;;17.50;;
9942;SDS011;5010;45.080;7.634;2023-08-20T05:56:39;20.30;;;19.30;;
9942;SDS011;5010;45.080;7.634;2023-08-20T05:59:06;23.08;;;21.92;;
9942;SDS011;5010;45.080;7.634;2023-08-20T06:01:35;25.23;;;23.98;;
9942;SDS011;5010;45.080;7.634;2023-08-20T06:04:03;20.38;;;19.38;;
9942;SDS011;5010;45.080;7.634;2023-08-20T06:06:32;14.15;;;13.43;;
9942;SDS011;5010;45.080;7.634;2023-08-20T06:08:59;17.30;;;16.40;;
9942;SDS011;5010;45.080;7.634;2023-08-20T06:11:26;24.13;;;22.92;;
9942;SDS011;5010;45.080;7.634;2023-08-20T06:13:54;22.63;;;21.52;;
9942;SDS011;5010;45.080;7.634;2023-08-20T06:16:21;18.90;;;17.95;;
9942;SDS011;5010;45.080;7.634;2023-08-20T06:18:48;20.35;;;19.35;;
9942;SDS011;5010;45.080;7.634;2023-08-20T06:21:15;19.73;;;18.73;;
9942;SDS011;5010;45.080;7.634;2023-08-20T06:23:45;20.50;;;19.50;;
9942;SDS011;5010;45.080;7.634;2023-08-20T06:26:14;18.05;;;17.15;;
9942;SDS011;5010;45.080;7.634;2023-08-20T06:28:41;18.70;;;17.80;;
9942;SDS011;5010;45.080;7.634;2023-08-20T06:31:08;16.65;;;15.85;;
9942;SDS011;5010;45.080;7.634;2023-08-20T06:33:36;19.27;;;18.27;;
9942;SDS011;5010;45.080;7.634;2023-08-20T06:36:03;17.70;;;16.80;;
9942;SDS011;5010;45.080;7.634;2023-08-20T06:38:30;16.65;;;15.85;;
9942;SDS011;5010;45.080;7.634;2023-08-20T06:40:59;20.23;;;19.23;;
9942;SDS011;5010;45.080;7.634;2023-08-20T06:43:26;19.08;;;18.10;;
9942;SDS011;5010;45.080;7.634;2023-08-20T06:45:54;17.27;;;16.38;;
9942;SDS011;5010;45.080;7.634;2023-08-20T06:48:23;13.75;;;13.05;;
9942;SDS011;5010;45.080;7.634;2023-08-20T06:50:51;19.60;;;18.60;;
9942;SDS011;5010;45.080;7.634;2023-08-20T06:53:18;17.05;;;16.17;;
9942;SDS011;5010;45.080;7.634;2023-08-20T06:55:46;18.77;;;17.88;;
9942;SDS011;5010;45.080;7.634;2023-08-20T06:58:14;21.42;;;20.33;;
9942;SDS011;5010;45.080;7.634;2023-08-20T07:00:41;15.52;;;14.73;;
9942;SDS011;5010;45.080;7.634;2023-08-20T07:03:09;20.23;;;19.23;;
9942;SDS011;5010;45.080;7.634;2023-08-20T07:05:36;18.50;;;17.60;;
9942;SDS011;5010;45.080;7.634;2023-08-20T07:08:04;22.10;;;21.00;;
9942;SDS011;5010;45.080;7.634;2023-08-20T07:10:31;21.08;;;20.02;;
9942;SDS011;5010;45.080;7.634;2023-08-20T07:12:58;21.35;;;20.27;;
9942;SDS011;5010;45.080;7.634;2023-08-20T07:15:27;18.00;;;17.10;;
9942;SDS011;5010;45.080;7.634;2023-08-20T07:17:54;17.83;;;16.92;;
9942;SDS011;5010;45.080;7.634;2023-08-20T07:20:21;18.17;;;17.27;;
9942;SDS011;5010;45.080;7.634;2023-08-20T07:22:49;19.40;;;18.40;;
9942;SDS011;5010;45.080;7.634;2023-08-20T07:25:16;17.75;;;16.85;;
9942;SDS011;5010;45.080;7.634;2023-08-20T07:27:43;23.13;;;21.98;;
9942;SDS011;5010;45.080;7.634;2023-08-20T07:30:11;22.83;;;21.73;;
9942;SDS011;5010;45.080;7.634;2023-08-20T07:32:39;22.92;;;21.77;;
9942;SDS011;5010;45.080;7.634;2023-08-20T07:35:07;13.68;;;12.98;;
9942;SDS011;5010;45.080;7.634;2023-08-20T07:37:35;19.10;;;18.10;;
9942;SDS011;5010;45.080;7.634;2023-08-20T07:40:02;21.33;;;20.23;;
9942;SDS011;5010;45.080;7.634;2023-08-20T07:42:29;19.75;;;18.75;;
9942;SDS011;5010;45.080;7.634;2023-08-20T07:44:57;18.95;;;18.00;;
9942;SDS011;5010;45.080;7.634;2023-08-20T07:47:24;20.42;;;19.42;;
9942;SDS011;5010;45.080;7.634;2023-08-20T07:49:55;19.23;;;18.25;;
9942;SDS011;5010;45.080;7.634;2023-08-20T07:52:22;20.70;;;19.70;;
9942;SDS011;5010;45.080;7.634;2023-08-20T07:54:49;17.73;;;16.83;;
9942;SDS011;5010;45.080;7.634;2023-08-20T07:57:17;25.58;;;24.30;;
9942;SDS011;5010;45.080;7.634;2023-08-20T07:59:44;24.10;;;22.90;;
9942;SDS011;5010;45.080;7.634;2023-08-20T08:02:11;23.35;;;22.15;;
9942;SDS011;5010;45.080;7.634;2023-08-20T08:04:39;22.48;;;21.38;;
9942;SDS011;5010;45.080;7.634;2023-08-20T08:07:07;23.85;;;22.65;;
9942;SDS011;5010;45.080;7.634;2023-08-20T08:09:34;21.45;;;20.35;;
9942;SDS011;5010;45.080;7.634;2023-08-20T08:12:02;16.83;;;15.98;;
9942;SDS011;5010;45.080;7.634;2023-08-20T08:14:30;24.30;;;23.10;;
9942;SDS011;5010;45.080;7.634;2023-08-20T08:16:57;27.65;;;26.27;;
9942;SDS011;5010;45.080;7.634;2023-08-20T08:19:24;22.52;;;21.42;;
9942;SDS011;5010;45.080;7.634;2023-08-20T08:21:52;16.58;;;15.77;;
9942;SDS011;5010;45.080;7.634;2023-08-20T08:24:21;18.52;;;17.63;;
9942;SDS011;5010;45.080;7.634;2023-08-20T08:26:54;23.50;;;22.30;;
9942;SDS011;5010;45.080;7.634;2023-08-20T08:29:21;24.33;;;23.13;;
9942;SDS011;5010;45.080;7.634;2023-08-20T08:31:49;23.95;;;22.75;;
9942;SDS011;5010;45.080;7.634;2023-08-20T08:34:16;25.70;;;24.40;;
9942;SDS011;5010;45.080;7.634;2023-08-20T08:36:43;29.25;;;27.80;;
9942;SDS011;5010;45.080;7.634;2023-08-20T08:39:10;31.75;;;30.17;;
9942;SDS011;5010;45.080;7.634;2023-08-20T08:41:41;23.10;;;21.95;;
9942;SDS011;5010;45.080;7.634;2023-08-20T08:44:10;27.27;;;25.92;;
9942;SDS011;5010;45.080;7.634;2023-08-20T08:46:37;29.65;;;28.17;;
9942;SDS011;5010;45.080;7.634;2023-08-20T08:49:05;27.40;;;26.05;;
9942;SDS011;5010;45.080;7.634;2023-08-20T08:51:36;28.10;;;26.73;;
9942;SDS011;5010;45.080;7.634;2023-08-20T08:54:03;23.25;;;22.05;;
9942;SDS011;5010;45.080;7.634;2023-08-20T08:56:31;24.58;;;23.38;;
9942;SDS011;5010;45.080;7.634;2023-08-20T08:59:00;24.90;;;23.70;;
9942;SDS011;5010;45.080;7.634;2023-08-20T09:01:28;22.88;;;21.77;;
9942;SDS011;5010;45.080;7.634;2023-08-20T09:03:55;29.00;;;27.60;;
9942;SDS011;5010;45.080;7.634;2023-08-20T09:06:23;27.27;;;25.95;;
9942;SDS011;5010;45.080;7.634;2023-08-20T09:08:50;28.90;;;27.50;;
9942;SDS011;5010;45.080;7.634;2023-08-20T09:11:34;30.10;;;28.60;;
9942;SDS011;5010;45.080;7.634;2023-08-20T09:14:03;26.10;;;24.80;;
9942;SDS011;5010;45.080;7.634;2023-08-20T09:16:30;28.42;;;27.02;;
9942;SDS011;5010;45.080;7.634;2023-08-20T09:18:58;26.88;;;25.58;;
9942;SDS011;5010;45.080;7.634;2023-08-20T09:21:26;29.13;;;27.70;;
9942;SDS011;5010;45.080;7.634;2023-08-20T09:23:54;29.10;;;27.70;;
9942;SDS011;5010;45.080;7.634;2023-08-20T09:26:22;31.33;;;29.80;;
9942;SDS011;5010;45.080;7.634;2023-08-20T09:28:49;29.42;;;27.98;;
9942;SDS011;5010;45.080;7.634;2023-08-20T09:31:18;29.55;;;28.05;;
9942;SDS011;5010;45.080;7.634;2023-08-20T09:33:49;27.52;;;26.15;;
9942;SDS011;5010;45.080;7.634;2023-08-20T09:36:16;31.33;;;29.80;;
9942;SDS011;5010;45.080;7.634;2023-08-20T09:38:44;29.70;;;28.20;;
9942;SDS011;5010;45.080;7.634;2023-08-20T09:41:11;29.77;;;28.27;;
9942;SDS011;5010;45.080;7.634;2023-08-20T09:43:39;30.40;;;28.90;;
9942;SDS011;5010;45.080;7.634;2023-08-20T09:46:07;31.10;;;29.60;;
9942;SDS011;5010;45.080;7.634;2023-08-20T09:48:38;31.20;;;29.70;;
9942;SDS011;5010;45.080;7.634;2023-08-20T09:51:09;32.15;;;30.55;;
9942;SDS011;5010;45.080;7.634;2023-08-20T09:53:39;33.28;;;31.67;;
9942;SDS011;5010;45.080;7.634;2023-08-20T09:56:14;30.35;;;28.85;;
9942;SDS011;5010;45.080;7.634;2023-08-20T09:58:43;25.17;;;23.92;;
9942;SDS011;5010;45.080;7.634;2023-08-20T10:01:10;33.38;;;31.75;;
9942;SDS011;5010;45.080;7.634;2023-08-20T10:03:40;29.42;;;27.95;;
9942;SDS011;5010;45.080;7.634;2023-08-20T10:06:08;30.42;;;28.92;;
9942;SDS011;5010;45.080;7.634;2023-08-20T10:08:36;27.58;;;26.17;;
9942;SDS011;5010;45.080;7.634;2023-08-20T10:11:03;33.58;;;31.95;;
9942;SDS011;5010;45.080;7.634;2023-08-20T10:13:31;32.92;;;31.33;;
9942;SDS011;5010;45.080;7.634;2023-08-20T10:15:58;26.70;;;25.40;;
9942;SDS011;5010;45.080;7.634;2023-08-20T10:18:26;29.85;;;28.38;;
9942;SDS011;5010;45.080;7.634;2023-08-20T10:20:59;27.48;;;26.10;;
9942;SDS011;5010;45.080;7.634;2023-08-20T10:23:28;25.83;;;24.52;;
9942;SDS011;5010;45.080;7.634;2023-08-20T10:25:55;33.63;;;31.98;;
9942;SDS011;5010;45.080;7.634;2023-08-20T10:28:34;31.08;;;29.58;;
9942;SDS011;5010;45.080;7.634;2023-08-20T10:31:08;31.25;;;29.73;;
9942;SDS011;5010;45.080;7.634;2023-08-20T10:33:37;32.08;;;30.48;;
9942;SDS011;5010;45.080;7.634;2023-08-20T10:36:13;28.95;;;27.55;;
9942;SDS011;5010;45.080;7.634;2023-08-20T10:38:40;30.38;;;28.88;;
9942;SDS011;5010;45.080;7.634;2023-08-20T10:41:08;31.80;;;30.23;;
9942;SDS011;5010;45.080;7.634;2023-08-20T10:43:37;30.58;;;29.08;;
9942;SDS011;5010;45.080;7.634;2023-08-20T10:46:05;32.25;;;30.65;;
9942;SDS011;5010;45.080;7.634;2023-08-20T10:48:38;30.17;;;28.67;;
9942;SDS011;5010;45.080;7.634;2023-08-20T10:51:11;35.15;;;33.45;;
9942;SDS011;5010;45.080;7.634;2023-08-20T10:53:39;39.60;;;37.70;;
9942;SDS011;5010;45.080;7.634;2023-08-20T10:56:08;32.88;;;31.25;;
9942;SDS011;5010;45.080;7.634;2023-08-20T10:58:35;30.70;;;29.20;;
9942;SDS011;5010;45.080;7.634;2023-08-20T11:01:15;28.60;;;27.20;;
9942;SDS011;5010;45.080;7.634;2023-08-20T11:03:43;25.60;;;24.30;;
9942;SDS011;5010;45.080;7.634;2023-08-20T11:06:13;23.27;;;22.13;;
9942;SDS011;5010;45.080;7.634;2023-08-20T11:08:41;27.73;;;26.33;;
9942;SDS011;5010;45.080;7.634;2023-08-20T11:11:08;30.42;;;28.92;;
9942;SDS011;5010;45.080;7.634;2023-08-20T11:13:36;25.00;;;23.75;;
9942;SDS011;5010;45.080;7.634;2023-08-20T11:16:03;27.38;;;26.02;;
9942;SDS011;5010;45.080;7.634;2023-08-20T11:18:31;30.20;;;28.70;;
9942;SDS011;5010;45.080;7.634;2023-08-20T11:20:59;32.20;;;30.60;;
9942;SDS011;5010;45.080;7.634;2023-08-20T11:23:28;29.92;;;28.45;;
9942;SDS011;5010;45.080;7.634;2023-08-20T11:25:55;39.15;;;37.25;;
9942;SDS011;5010;45.080;7.634;2023-08-20T11:28:24;32.25;;;30.65;;
9942;SDS011;5010;45.080;7.634;2023-08-20T11:30:51;31.17;;;29.65;;
9942;SDS011;5010;45.080;7.634;2023-08-20T11:33:20;30.63;;;29.13;;
9942;SDS011;5010;45.080;7.634;2023-08-20T11:35:48;28.77;;;27.38;;
9942;SDS011;5010;45.080;7.634;2023-08-20T11:38:16;28.48;;;27.08;;
9942;SDS011;5010;45.080;7.634;2023-08-20T11:40:45;31.20;;;29.70;;
9942;SDS011;5010;45.080;7.634;2023-08-20T11:43:12;34.70;;;33.00;;
9942;SDS011;5010;45.080;7.634;2023-08-20T11:45:46;27.38;;;26.00;;
9942;SDS011;5010;45.080;7.634;2023-08-20T11:48:13;35.05;;;33.35;;
9942;SDS011;5010;45.080;7.634;2023-08-20T11:50:41;28.13;;;26.73;;
9942;SDS011;5010;45.080;7.634;2023-08-20T11:53:08;31.13;;;29.60;;
9942;SDS011;5010;45.080;7.634;2023-08-20T11:55:37;28.98;;;27.58;;
9942;SDS011;5010;45.080;7.634;2023-08-20T11:58:06;32.22;;;30.63;;
9942;SDS011;5010;45.080;7.634;2023-08-20T12:00:35;28.38;;;26.98;;
9942;SDS011;5010;45.080;7.634;2023-08-20T12:03:02;27.67;;;26.27;;
9942;SDS011;5010;45.080;7.634;2023-08-20T12:05:30;26.13;;;24.83;;
9942;SDS011;5010;45.080;7.634;2023-08-20T12:08:00;33.03;;;31.42;;
9942;SDS011;5010;45.080;7.634;2023-08-20T12:10:28;33.20;;;31.60;;
9942;SDS011;5010;45.080;7.634;2023-08-20T12:12:56;32.47;;;30.88;;
9942;SDS011;5010;45.080;7.634;2023-08-20T12:15:24;28.75;;;27.35;;
9942;SDS011;5010;45.080;7.634;2023-08-20T12:17:55;33.40;;;31.75;;
9942;SDS011;5010;45.080;7.634;2023-08-20T12:20:22;28.25;;;26.85;;
9942;SDS011;5010;45.080;7.634;2023-08-20T12:22:50;28.77;;;27.38;;
9942;SDS011;5010;45.080;7.634;2023-08-20T12:25:17;28.02;;;26.63;;
9942;SDS011;5010;45.080;7.634;2023-08-20T12:27:45;30.95;;;29.45;;
9942;SDS011;5010;45.080;7.634;2023-08-20T12:30:12;29.45;;;28.00;;
9942;SDS011;5010;45.080;7.634;2023-08-20T12:32:41;28.08;;;26.67;;
9942;SDS011;5010;45.080;7.634;2023-08-20T12:35:08;26.83;;;25.50;;
9942;SDS011;5010;45.080;7.634;2023-08-20T12:37:35;23.13;;;21.98;;
9942;SDS011;5010;45.080;7.634;2023-08-20T12:40:03;29.80;;;28.30;;
9942;SDS011;5010;45.080;7.634;2023-08-20T12:42:32;27.73;;;26.33;;
9942;SDS011;5010;45.080;7.634;2023-08-20T12:44:59;30.75;;;29.25;;
9942;SDS011;5010;45.080;7.634;2023-08-20T12:47:28;31.00;;;29.50;;
9942;SDS011;5010;45.080;7.634;2023-08-20T12:49:56;28.80;;;27.40;;
9942;SDS011;5010;45.080;7.634;2023-08-20T12:52:23;31.63;;;30.02;;
9942;SDS011;5010;45.080;7.634;2023-08-20T12:54:51;29.05;;;27.60;;
9942;SDS011;5010;45.080;7.634;2023-08-20T12:57:18;27.40;;;26.05;;
9942;SDS011;5010;45.080;7.634;2023-08-20T12:59:45;28.75;;;27.33;;
9942;SDS011;5010;45.080;7.634;2023-08-20T13:02:12;33.28;;;31.67;;
9942;SDS011;5010;45.080;7.634;2023-08-20T13:04:41;25.80;;;24.50;;
9942;SDS011;5010;45.080;7.634;2023-08-20T13:07:09;29.63;;;28.17;;
9942;SDS011;5010;45.080;7.634;2023-08-20T13:09:37;33.55;;;31.90;;
9942;SDS011;5010;45.080;7.634;2023-08-20T13:12:05;35.72;;;33.97;;
9942;SDS011;5010;45.080;7.634;2023-08-20T13:14:37;32.22;;;30.63;;
9942;SDS011;5010;45.080;7.634;2023-08-20T13:17:05;31.55;;;30.00;;
9942;SDS011;5010;45.080;7.634;2023-08-20T13:19:32;33.80;;;32.10;;
9942;SDS011;5010;45.080;7.634;2023-08-20T13:21:59;29.77;;;28.27;;
9942;SDS011;5010;45.080;7.634;2023-08-20T13:24:28;27.65;;;26.25;;
9942;SDS011;5010;45.080;7.634;2023-08-20T13:26:55;34.03;;;32.35;;
9942;SDS011;5010;45.080;7.634;2023-08-20T13:29:23;29.85;;;28.40;;
9942;SDS011;5010;45.080;7.634;2023-08-20T13:31:52;33.58;;;31.92;;
9942;SDS011;5010;45.080;7.634;2023-08-20T13:34:20;35.10;;;33.40;;
9942;SDS011;5010;45.080;7.634;2023-08-20T13:36:47;26.33;;;25.02;;
9942;SDS011;5010;45.080;7.634;2023-08-20T13:39:14;29.92;;;28.42;;
9942;SDS011;5010;45.080;7.634;2023-08-20T13:41:45;30.33;;;28.83;;
9942;SDS011;5010;45.080;7.634;2023-08-20T13:44:13;30.95;;;29.45;;
9942;SDS011;5010;45.080;7.634;2023-08-20T13:46:40;26.92;;;25.63;;
9942;SDS011;5010;45.080;7.634;2023-08-20T13:49:07;30.38;;;28.88;;
9942;SDS011;5010;45.080;7.634;2023-08-20T13:51:34;32.15;;;30.55;;
9942;SDS011;5010;45.080;7.634;2023-08-20T13:54:02;31.45;;;29.92;;
9942;SDS011;5010;45.080;7.634;2023-08-20T13:56:29;34.08;;;32.38;;
9942;SDS011;5010;45.080;7.634;2023-08-20T13:58:58;30.10;;;28.60;;
9942;SDS011;5010;45.080;7.634;2023-08-20T14:01:25;26.50;;;25.20;;
9942;SDS011;5010;45.080;7.634;2023-08-20T14:03:52;29.40;;;27.95;;
9942;SDS011;5010;45.080;7.634;2023-08-20T14:06:19;30.15;;;28.65;;
9942;SDS011;5010;45.080;7.634;2023-08-20T14:08:47;24.77;;;23.58;;
9942;SDS011;5010;45.080;7.634;2023-08-20T14:11:15;28.65;;;27.25;;
9942;SDS011;5010;45.080;7.634;2023-08-20T14:13:42;27.90;;;26.50;;
9942;SDS011;5010;45.080;7.634;2023-08-20T14:16:11;33.03;;;31.42;;
9942;SDS011;5010;45.080;7.634;2023-08-20T14:18:38;29.88;;;28.38;;
9942;SDS011;5010;45.080;7.634;2023-08-20T14:21:06;30.27;;;28.77;;
9942;SDS011;5010;45.080;7.634;2023-08-20T14:23:33;26.45;;;25.15;;
9942;SDS011;5010;45.080;7.634;2023-08-20T14:26:00;29.88;;;28.38;;
9942;SDS011;5010;45.080;7.634;2023-08-20T14:28:28;30.33;;;28.83;;
9942;SDS011;5010;45.080;7.634;2023-08-20T14:31:01;26.67;;;25.38;;
9942;SDS011;5010;45.080;7.634;2023-08-20T14:33:29;28.70;;;27.30;;
9942;SDS011;5010;45.080;7.634;2023-08-20T14:35:57;26.60;;;25.30;;
9942;SDS011;5010;45.080;7.634;2023-08-20T14:38:24;28.20;;;26.80;;
9942;SDS011;5010;45.080;7.634;2023-08-20T14:40:51;26.95;;;25.65;;
9942;SDS011;5010;45.080;7.634;2023-08-20T14:43:19;27.73;;;26.33;;
9942;SDS011;5010;45.080;7.634;2023-08-20T14:45:46;27.80;;;26.40;;
9942;SDS011;5010;45.080;7.634;2023-08-20T14:48:13;26.20;;;24.90;;
9942;SDS011;5010;45.080;7.634;2023-08-20T14:50:42;30.13;;;28.63;;
9942;SDS011;5010;45.080;7.634;2023-08-20T14:53:10;28.35;;;26.95;;
9942;SDS011;5010;45.080;7.634;2023-08-20T14:55:37;28.17;;;26.77;;